Time;durP1;ratioP1;P1;durP2;ratioP2;P2;SDS_P1;SDS_P2;PMS_P1;PMS_P2;Temp;Humidity;BMP_temperature;BMP_pressure;BME280_temperature;BME280_humidity;BME280_pressure;Samples;Min_cycle;Max_cycle;Signal;HPM_P1;HPM_P2
2023/05/23 00:01:01;;;;;;;10.80;5.18;;;;;;;16.26;50.74;100880.34;5094975;28;20044;-60
2023/05/23 00:03:30;;;;;;;10.35;4.63;;;;;;;16.22;51.02;100875.34;5093591;28;20420;-60
2023/05/23 00:05:57;;;;;;;7.47;4.55;;;;;;;16.16;51.22;100876.59;5088610;28;20052;-61
2023/05/23 00:08:24;;;;;;;10.90;4.55;;;;;;;16.15;51.39;100877.56;5093774;28;20044;-60
2023/05/23 00:10:51;;;;;;;7.65;4.60;;;;;;;16.09;51.81;100869.97;5093124;28;20094;-60
2023/05/23 00:13:17;;;;;;;8.23;4.70;;;;;;;16.07;51.94;100871.88;5093665;28;20488;-60
2023/05/23 00:15:44;;;;;;;7.78;3.97;;;;;;;16.00;51.63;100878.59;5092563;28;20066;-60
2023/05/23 00:18:11;;;;;;;10.40;5.25;;;;;;;15.99;51.75;100874.19;5094398;28;20103;-60
2023/05/23 00:20:41;;;;;;;10.13;5.30;;;;;;;15.95;51.82;100869.09;5094788;28;20149;-61
2023/05/23 00:23:09;;;;;;;12.23;4.80;;;;;;;15.96;51.81;100860.13;5095400;28;20052;-61
2023/05/23 00:25:36;;;;;;;12.10;4.78;;;;;;;15.94;51.59;100863.88;5098692;28;20052;-61
2023/05/23 00:28:04;;;;;;;9.40;5.28;;;;;;;15.90;51.69;100865.84;5076396;28;20341;-61
2023/05/23 00:30:32;;;;;;;14.10;4.85;;;;;;;15.89;51.97;100857.97;5094004;28;20502;-61
2023/05/23 00:32:59;;;;;;;8.05;4.70;;;;;;;15.83;52.80;100859.22;5093939;28;20072;-61
2023/05/23 00:35:26;;;;;;;10.45;4.45;;;;;;;15.79;52.85;100863.06;5093691;28;20040;-61
2023/05/23 00:37:54;;;;;;;8.65;5.50;;;;;;;15.77;53.15;100863.16;5092869;28;20138;-61
2023/05/23 00:40:22;;;;;;;9.93;4.18;;;;;;;15.75;53.46;100853.53;5088004;28;20044;-61
2023/05/23 00:42:48;;;;;;;10.43;4.97;;;;;;;15.74;53.77;100852.69;5083855;28;20044;-61
2023/05/23 00:45:17;;;;;;;7.57;4.25;;;;;;;15.70;53.45;100847.66;5088580;28;20465;-61
2023/05/23 00:47:44;;;;;;;10.93;4.78;;;;;;;15.72;53.55;100859.03;5092044;28;20062;-62
2023/05/23 00:50:16;;;;;;;7.63;4.40;;;;;;;15.75;53.42;100857.03;5093003;28;20099;-61
2023/05/23 00:52:45;;;;;;;10.43;4.68;;;;;;;15.71;53.95;100852.00;5093065;28;20036;-62
2023/05/23 00:55:12;;;;;;;9.93;4.85;;;;;;;15.62;53.77;100856.13;5092782;28;20375;-61
2023/05/23 00:57:40;;;;;;;7.63;4.82;;;;;;;15.56;53.18;100849.41;5092324;28;20044;-62
2023/05/23 01:00:10;;;;;;;8.43;4.55;;;;;;;15.52;53.06;100844.38;5095249;28;20091;-61
2023/05/23 01:02:45;;;;;;;8.65;5.32;;;;;;;15.48;52.96;100854.38;5088951;28;20076;-60
2023/05/23 01:05:16;;;;;;;9.35;4.88;;;;;;;15.44;53.47;100850.19;5097973;28;20051;-60
2023/05/23 01:07:44;;;;;;;9.38;5.15;;;;;;;15.43;53.88;100851.13;5112811;28;20068;-60
2023/05/23 01:10:12;;;;;;;11.40;5.32;;;;;;;15.40;53.66;100846.03;5101063;28;20079;-60
2023/05/23 01:12:57;;;;;;;12.90;5.75;;;;;;;15.42;53.49;100841.44;5086673;28;20044;-60
2023/05/23 01:15:31;;;;;;;9.77;5.55;;;;;;;15.44;53.25;100842.19;5087228;28;20044;-60
2023/05/23 01:18:07;;;;;;;9.63;4.68;;;;;;;15.46;53.34;100842.94;5081682;28;20136;-60
2023/05/23 01:20:40;;;;;;;8.93;4.50;;;;;;;15.47;53.43;100838.50;5083614;28;20135;-61
2023/05/23 01:23:40;;;;;;;9.52;4.82;;;;;;;15.53;53.67;100846.06;5091782;28;20047;-61
2023/05/23 01:26:31;;;;;;;15.80;5.38;;;;;;;15.59;53.50;100846.53;5078000;28;20052;-61
2023/05/23 01:29:08;;;;;;;9.73;5.25;;;;;;;15.69;53.72;100845.91;5083611;28;20082;-61
2023/05/23 01:31:45;;;;;;;9.38;4.40;;;;;;;15.73;53.40;100848.28;5082117;28;20048;-62
2023/05/23 01:34:13;;;;;;;12.20;4.80;;;;;;;15.65;52.59;100863.09;5079254;28;20056;-61
2023/05/23 01:36:41;;;;;;;9.02;5.10;;;;;;;15.42;52.06;100865.41;5081002;28;20130;-62
2023/05/23 01:39:09;;;;;;;10.23;5.00;;;;;;;15.55;51.62;100855.69;5080782;28;20476;-61
2023/05/23 01:41:36;;;;;;;9.32;4.80;;;;;;;15.63;51.99;100835.66;5079890;28;20044;-62
2023/05/23 01:44:03;;;;;;;10.98;4.88;;;;;;;15.72;51.74;100835.06;5072327;28;20122;-61
2023/05/23 01:46:32;;;;;;;11.80;4.90;;;;;;;15.77;51.57;100848.97;5091364;28;20071;-61
2023/05/23 01:49:02;;;;;;;9.07;5.00;;;;;;;15.90;51.31;100855.19;5092530;28;20482;-61
2023/05/23 01:51:29;;;;;;;7.80;5.03;;;;;;;15.83;51.02;100853.91;5084964;28;20171;-61
2023/05/23 01:53:56;;;;;;;6.30;4.05;;;;;;;15.83;51.09;100840.56;5092497;28;20127;-61
2023/05/23 01:56:23;;;;;;;7.95;5.15;;;;;;;15.83;51.26;100848.56;5089561;28;20135;-61
2023/05/23 01:58:50;;;;;;;12.63;4.50;;;;;;;15.82;52.20;100835.34;5079329;28;20052;-61
2023/05/23 02:01:17;;;;;;;8.88;5.10;;;;;;;15.84;51.77;100842.28;5088836;28;20054;-60
2023/05/23 02:03:44;;;;;;;13.32;5.05;;;;;;;15.84;51.97;100831.63;5082717;28;20075;-61
2023/05/23 02:06:10;;;;;;;7.68;4.65;;;;;;;15.89;51.94;100832.19;5095624;28;20078;-61
2023/05/23 02:08:37;;;;;;;8.55;5.07;;;;;;;15.94;52.14;100827.38;5090876;28;20056;-61
2023/05/23 02:11:04;;;;;;;9.55;5.03;;;;;;;15.95;52.17;100821.13;5087793;28;20052;-60
2023/05/23 02:13:30;;;;;;;20.75;4.35;;;;;;;15.97;52.08;100823.69;5091553;28;20059;-61
2023/05/23 02:15:57;;;;;;;8.13;4.72;;;;;;;15.98;52.50;100824.53;5076787;28;20059;-61
2023/05/23 02:18:25;;;;;;;7.63;4.43;;;;;;;15.98;52.55;100817.38;5084496;28;20048;-61
2023/05/23 02:20:51;;;;;;;8.05;4.65;;;;;;;16.01;52.39;100819.00;5090909;28;20047;-61
2023/05/23 02:23:18;;;;;;;8.55;4.72;;;;;;;16.04;52.50;100813.44;5091853;28;20054;-61
2023/05/23 02:25:44;;;;;;;7.57;4.68;;;;;;;16.07;52.32;100815.88;5091353;28;20357;-61
2023/05/23 02:28:11;;;;;;;11.20;5.28;;;;;;;16.12;52.20;100813.78;5092171;28;20143;-61
2023/05/23 02:30:38;;;;;;;7.10;4.30;;;;;;;16.12;52.46;100813.78;5102838;28;20082;-61
2023/05/23 02:33:05;;;;;;;8.32;4.65;;;;;;;16.13;52.85;100808.34;5093011;28;20040;-61
2023/05/23 02:35:33;;;;;;;9.73;4.65;;;;;;;16.19;52.31;100816.88;5091264;28;20147;-60
2023/05/23 02:37:59;;;;;;;10.82;5.65;;;;;;;16.14;52.81;100809.19;5092121;28;20048;-61
2023/05/23 02:40:26;;;;;;;8.00;5.03;;;;;;;16.10;52.68;100807.69;5091701;28;20094;-60
2023/05/23 02:42:55;;;;;;;11.10;5.72;;;;;;;16.11;52.36;100809.41;5091756;28;20072;-60
2023/05/23 02:45:23;;;;;;;10.85;5.15;;;;;;;16.14;52.24;100815.38;5089700;28;20044;-61
2023/05/23 02:47:50;;;;;;;7.53;4.45;;;;;;;16.17;51.56;100819.66;5089989;28;20059;-61
2023/05/23 02:50:16;;;;;;;10.00;5.07;;;;;;;16.16;52.39;100817.94;5091074;28;20048;-61
2023/05/23 02:52:43;;;;;;;7.47;4.72;;;;;;;16.18;53.07;100824.00;5091762;28;20527;-61
2023/05/23 02:55:10;;;;;;;9.05;5.07;;;;;;;16.07;54.36;100832.75;5090407;28;20123;-61
2023/05/23 02:57:36;;;;;;;11.00;5.20;;;;;;;15.96;57.84;100832.63;5092005;28;20048;-61
2023/05/23 03:00:03;;;;;;;7.95;4.80;;;;;;;15.85;58.22;100830.66;5091679;28;20059;-61
2023/05/23 03:02:30;;;;;;;7.38;4.97;;;;;;;15.71;58.03;100822.69;5092234;28;20048;-62
2023/05/23 03:04:57;;;;;;;8.85;5.30;;;;;;;15.63;59.47;100809.00;5091028;28;20641;-61
2023/05/23 03:07:24;;;;;;;10.60;5.10;;;;;;;15.57;59.33;100811.13;5091593;28;20401;-61
2023/05/23 03:09:54;;;;;;;9.02;5.30;;;;;;;15.52;59.41;100801.75;5091637;28;20052;-61
2023/05/23 03:12:21;;;;;;;8.90;4.75;;;;;;;15.48;60.50;100793.13;5091922;28;20357;-60
2023/05/23 03:14:48;;;;;;;8.32;5.03;;;;;;;15.47;59.81;100786.06;5091277;28;20048;-61
2023/05/23 03:17:15;;;;;;;8.27;5.15;;;;;;;15.48;59.32;100782.47;5091510;28;20147;-61
2023/05/23 03:19:41;;;;;;;9.25;5.20;;;;;;;15.50;59.88;100780.53;5091680;28;20044;-61
2023/05/23 03:22:08;;;;;;;8.45;5.10;;;;;;;15.60;59.29;100778.13;5092083;28;20445;-61
2023/05/23 03:24:34;;;;;;;8.80;4.90;;;;;;;15.67;59.07;100778.56;5091193;28;20040;-61
2023/05/23 03:27:01;;;;;;;9.57;5.80;;;;;;;15.70;58.82;100773.03;5091307;28;20544;-61
2023/05/23 03:29:28;;;;;;;8.98;5.97;;;;;;;15.72;57.15;100769.28;5091926;28;20048;-61
2023/05/23 03:31:55;;;;;;;10.55;4.68;;;;;;;15.77;54.81;100769.91;5091219;28;20044;-61
2023/05/23 03:34:22;;;;;;;11.57;4.90;;;;;;;15.83;54.83;100773.94;5090608;28;20056;-60
2023/05/23 03:36:49;;;;;;;9.48;4.68;;;;;;;15.90;54.30;100787.72;5082785;28;20435;-60
2023/05/23 03:39:16;;;;;;;10.27;5.82;;;;;;;15.87;53.93;100791.47;5081886;28;20102;-61
2023/05/23 03:41:42;;;;;;;18.75;4.78;;;;;;;15.90;53.73;100793.88;5078321;28;20052;-60
2023/05/23 03:44:09;;;;;;;7.35;5.18;;;;;;;15.92;53.29;100800.00;5079780;28;20040;-61
2023/05/23 03:46:36;;;;;;;11.75;5.70;;;;;;;15.93;53.31;100791.00;5082436;28;20117;-60
2023/05/23 03:49:04;;;;;;;13.52;5.07;;;;;;;15.97;52.97;100797.03;5093082;28;20121;-60
2023/05/23 03:51:31;;;;;;;9.10;4.90;;;;;;;16.01;52.90;100793.16;5091579;28;20052;-60
2023/05/23 03:53:57;;;;;;;9.27;5.20;;;;;;;16.04;53.43;100792.13;5088779;28;20206;-60
2023/05/23 03:56:25;;;;;;;9.30;5.28;;;;;;;16.01;53.58;100792.34;5078922;28;20061;-60
2023/05/23 03:58:51;;;;;;;15.13;5.05;;;;;;;16.00;54.19;100795.94;5088841;28;20059;-60
2023/05/23 04:01:18;;;;;;;11.38;5.57;;;;;;;15.99;54.34;100799.56;5093948;28;20063;-60
2023/05/23 04:03:45;;;;;;;6.88;4.82;;;;;;;16.00;54.24;100811.94;5092260;28;20106;-60
2023/05/23 04:06:11;;;;;;;8.32;5.07;;;;;;;16.02;54.75;100820.69;5090156;28;20525;-60
2023/05/23 04:08:40;;;;;;;8.63;5.15;;;;;;;15.96;55.54;100819.28;5094328;28;20134;-60
2023/05/23 04:11:07;;;;;;;10.82;4.93;;;;;;;15.95;55.98;100821.13;5094052;28;20048;-60
2023/05/23 04:13:34;;;;;;;8.35;4.72;;;;;;;15.94;56.46;100818.53;5093026;28;20578;-60
2023/05/23 04:16:04;;;;;;;9.23;5.15;;;;;;;15.98;56.75;100816.53;5090681;28;20048;-60
2023/05/23 04:18:37;;;;;;;11.67;5.23;;;;;;;16.00;56.59;100817.28;5076237;28;20055;-60
2023/05/23 04:21:04;;;;;;;9.73;5.32;;;;;;;16.02;56.78;100815.34;5088724;28;20387;-60
2023/05/23 04:23:31;;;;;;;14.23;4.88;;;;;;;16.06;57.72;100814.19;5076515;28;20368;-60
2023/05/23 04:25:58;;;;;;;12.45;5.15;;;;;;;16.11;58.11;100820.91;5090753;28;20079;-60
2023/05/23 04:28:26;;;;;;;5.93;4.63;;;;;;;16.16;58.09;100817.94;5093277;28;20080;-60
2023/05/23 04:30:53;;;;;;;9.55;4.93;;;;;;;16.18;57.82;100815.16;5095814;28;20133;-60
2023/05/23 04:33:20;;;;;;;9.27;5.82;;;;;;;16.23;57.55;100823.69;5085082;28;20044;-60
2023/05/23 04:35:48;;;;;;;10.13;5.25;;;;;;;16.20;57.29;100819.44;5087768;28;20516;-60
2023/05/23 04:38:14;;;;;;;14.02;5.07;;;;;;;16.18;56.41;100816.00;5089384;28;20040;-61
2023/05/23 04:40:41;;;;;;;8.23;5.10;;;;;;;16.00;57.02;100818.13;5092560;28;20077;-60
2023/05/23 04:43:08;;;;;;;8.05;4.80;;;;;;;15.84;58.24;100823.63;5093502;28;20139;-60
2023/05/23 04:45:35;;;;;;;9.68;5.32;;;;;;;15.65;59.48;100825.78;5086356;28;20094;-60
2023/05/23 04:48:02;;;;;;;8.48;5.15;;;;;;;15.51;60.67;100822.22;5089018;28;20163;-60
2023/05/23 04:50:31;;;;;;;8.77;5.57;;;;;;;15.41;60.45;100818.41;5087941;28;20045;-60
2023/05/23 04:52:58;;;;;;;11.50;5.43;;;;;;;15.48;61.27;100819.75;5082706;28;20047;-60
2023/05/23 04:55:25;;;;;;;11.02;5.90;;;;;;;15.42;60.44;100812.16;5081670;28;20051;-60
2023/05/23 04:57:52;;;;;;;9.52;5.15;;;;;;;15.53;60.96;100812.31;5089717;28;20052;-60
2023/05/23 05:00:19;;;;;;;10.43;5.18;;;;;;;15.59;60.50;100817.25;5085062;28;20146;-60
2023/05/23 05:02:45;;;;;;;11.45;5.68;;;;;;;15.68;59.96;100809.59;5076499;28;20048;-60
2023/05/23 05:05:12;;;;;;;8.57;5.20;;;;;;;15.74;59.55;100806.50;5083223;28;20083;-60
2023/05/23 05:07:39;;;;;;;8.50;5.10;;;;;;;15.82;59.98;100812.19;5082620;28;20486;-60
2023/05/23 05:10:06;;;;;;;11.95;5.90;;;;;;;15.89;59.84;100815.31;5080781;28;20048;-60
2023/05/23 05:12:33;;;;;;;10.80;5.72;;;;;;;15.91;58.88;100808.94;5079052;28;20469;-60
2023/05/23 05:15:02;;;;;;;10.75;5.13;;;;;;;15.99;58.99;100815.53;5082188;28;20518;-60
2023/05/23 05:17:29;;;;;;;10.35;4.90;;;;;;;16.05;58.73;100809.81;5093785;28;20447;-61
2023/05/23 05:19:55;;;;;;;9.57;4.82;;;;;;;16.11;58.81;100814.72;5087165;28;20431;-60
2023/05/23 05:22:22;;;;;;;11.43;5.40;;;;;;;16.07;58.88;100818.53;5093211;28;20610;-60
2023/05/23 05:24:49;;;;;;;13.88;5.13;;;;;;;16.06;58.42;100820.38;5090866;28;20135;-60
2023/05/23 05:27:15;;;;;;;7.05;4.70;;;;;;;16.05;57.15;100809.81;5092436;28;20048;-60
2023/05/23 05:29:42;;;;;;;10.52;5.55;;;;;;;16.08;57.58;100817.59;5092043;28;20048;-60
2023/05/23 05:32:09;;;;;;;11.57;5.30;;;;;;;16.06;57.50;100820.38;5090738;28;20047;-60
2023/05/23 05:34:36;;;;;;;7.85;4.97;;;;;;;16.10;57.02;100821.88;5088255;28;20483;-60
2023/05/23 05:37:03;;;;;;;11.45;5.15;;;;;;;16.15;57.04;100819.75;5081700;28;20040;-60
2023/05/23 05:39:30;;;;;;;7.20;4.90;;;;;;;16.15;56.84;100813.59;5087304;28;20054;-60
2023/05/23 05:41:56;;;;;;;10.98;4.93;;;;;;;16.21;56.61;100805.13;5093405;28;20048;-60
2023/05/23 05:44:23;;;;;;;10.65;5.18;;;;;;;16.21;56.69;100813.13;5088324;28;20058;-60
2023/05/23 05:46:50;;;;;;;8.90;5.30;;;;;;;16.21;56.93;100813.13;5087599;28;20103;-60
2023/05/23 05:49:17;;;;;;;8.70;4.70;;;;;;;16.17;56.46;100819.66;5084402;28;20048;-60
2023/05/23 05:51:43;;;;;;;9.38;5.03;;;;;;;16.20;56.57;100821.25;5091962;28;20044;-60
2023/05/23 05:54:10;;;;;;;11.88;6.32;;;;;;;16.23;56.10;100819.25;5091179;28;20154;-60
2023/05/23 05:56:36;;;;;;;7.57;4.60;;;;;;;16.34;55.40;100822.00;5092783;28;20048;-60
2023/05/23 05:59:03;;;;;;;8.25;5.43;;;;;;;16.44;55.09;100813.38;5092022;28;20076;-60
2023/05/23 06:01:29;;;;;;;13.55;5.97;;;;;;;16.42;55.46;100817.97;5091787;28;20050;-60
2023/05/23 06:03:57;;;;;;;7.90;5.35;;;;;;;16.65;54.76;100824.38;5091384;28;20066;-60
2023/05/23 06:06:24;;;;;;;18.23;6.38;;;;;;;16.72;54.51;100824.78;5090715;28;20139;-60
2023/05/23 06:08:50;;;;;;;12.60;5.55;;;;;;;16.63;54.85;100821.81;5091007;28;20062;-60
2023/05/23 06:11:17;;;;;;;21.58;5.53;;;;;;;16.81;54.75;100818.81;5091895;28;20054;-60
2023/05/23 06:13:44;;;;;;;9.77;4.97;;;;;;;16.86;54.52;100819.38;5091741;28;20101;-60
2023/05/23 06:16:10;;;;;;;16.50;5.78;;;;;;;16.94;54.46;100825.00;5107743;28;20079;-60
2023/05/23 06:18:37;;;;;;;10.65;5.47;;;;;;;16.90;54.49;100828.84;5101070;28;20048;-60
2023/05/23 06:21:03;;;;;;;18.05;6.10;;;;;;;16.85;54.13;100814.97;5087183;28;20050;-61
2023/05/23 06:23:30;;;;;;;15.27;5.90;;;;;;;16.69;54.85;100821.38;5090936;28;20528;-61
2023/05/23 06:25:58;;;;;;;10.30;5.65;;;;;;;16.88;54.69;100836.13;5088491;28;20058;-60
2023/05/23 06:28:24;;;;;;;14.77;6.07;;;;;;;16.93;54.99;100839.31;5079508;28;20044;-60
2023/05/23 06:30:51;;;;;;;21.45;5.75;;;;;;;16.89;54.34;100832.50;5088438;28;20045;-60
2023/05/23 06:33:17;;;;;;;11.43;5.00;;;;;;;16.90;54.60;100828.84;5087212;28;20466;-60
2023/05/23 06:35:44;;;;;;;8.55;5.78;;;;;;;16.83;54.93;100832.91;5085992;28;20132;-60
2023/05/23 06:38:10;;;;;;;8.38;5.18;;;;;;;16.85;54.87;100841.66;5088304;28;20578;-60
2023/05/23 06:40:37;;;;;;;11.05;5.55;;;;;;;16.67;55.17;100841.13;5090883;28;20066;-60
2023/05/23 06:43:03;;;;;;;9.93;5.40;;;;;;;16.78;55.11;100835.03;5083831;28;20052;-60
2023/05/23 06:45:30;;;;;;;10.30;5.93;;;;;;;16.79;55.52;100842.09;5081840;28;20051;-60
2023/05/23 06:47:58;;;;;;;10.70;5.30;;;;;;;16.73;55.99;100831.84;5076004;28;20117;-59
2023/05/23 06:50:25;;;;;;;17.27;6.30;;;;;;;16.75;55.70;100836.09;5078239;28;20045;-58
2023/05/23 06:52:51;;;;;;;14.35;5.80;;;;;;;16.65;56.31;100841.22;5083737;28;20049;-59
2023/05/23 06:55:19;;;;;;;10.02;5.45;;;;;;;16.84;55.84;100834.63;5078892;28;20067;-58
2023/05/23 06:57:46;;;;;;;11.13;4.88;;;;;;;16.75;56.24;100841.44;5088811;28;20127;-58
2023/05/23 07:00:13;;;;;;;8.65;5.25;;;;;;;16.86;55.95;100843.38;5080909;28;20080;-59
2023/05/23 07:02:39;;;;;;;10.85;5.90;;;;;;;16.83;56.24;100835.56;5084306;28;20127;-58
2023/05/23 07:05:06;;;;;;;15.70;4.97;;;;;;;16.92;55.92;100842.97;5085066;28;20103;-60
2023/05/23 07:07:33;;;;;;;10.93;5.45;;;;;;;16.99;56.15;100844.22;5088005;28;20149;-58
2023/05/23 07:10:00;;;;;;;11.98;5.00;;;;;;;16.91;56.32;100846.59;5087905;28;20044;-57
2023/05/23 07:12:26;;;;;;;8.05;5.32;;;;;;;16.66;57.12;100842.94;5089132;28;20048;-57
2023/05/23 07:14:53;;;;;;;7.47;6.25;;;;;;;16.65;56.72;100840.38;5088602;28;20058;-58
2023/05/23 07:17:19;;;;;;;13.63;5.75;;;;;;;16.67;57.18;100844.66;5077843;28;20056;-58
2023/05/23 07:19:46;;;;;;;7.05;4.72;;;;;;;16.96;56.70;100844.44;5086012;28;20130;-58
2023/05/23 07:22:12;;;;;;;15.60;5.93;;;;;;;17.02;56.08;100838.66;5081338;28;20087;-58
2023/05/23 07:24:39;;;;;;;11.93;5.13;;;;;;;16.99;56.92;100846.91;5090036;28;20144;-59
2023/05/23 07:27:05;;;;;;;11.70;5.65;;;;;;;16.97;57.47;100840.81;5092703;28;20044;-59
2023/05/23 07:29:32;;;;;;;12.35;6.25;;;;;;;17.06;57.79;100844.63;5091128;28;20494;-59
2023/05/23 07:31:58;;;;;;;11.73;5.60;;;;;;;17.01;58.10;100839.63;5091931;28;20064;-59
2023/05/23 07:34:28;;;;;;;14.48;5.90;;;;;;;16.97;58.29;100835.47;5088415;28;20055;-59
2023/05/23 07:36:54;;;;;;;11.25;5.60;;;;;;;17.20;57.60;100847.19;5090677;28;20487;-59
2023/05/23 07:39:23;;;;;;;9.32;5.50;;;;;;;17.19;57.55;100849.94;5090987;28;20101;-58
2023/05/23 07:41:49;;;;;;;15.93;6.50;;;;;;;17.44;56.78;100843.66;5095716;28;20497;-58
2023/05/23 07:44:18;;;;;;;19.52;5.97;;;;;;;17.76;56.26;100845.81;5099325;28;20056;-58
2023/05/23 07:46:47;;;;;;;19.33;6.32;;;;;;;17.92;56.26;100842.88;5091141;28;20176;-61
2023/05/23 07:49:14;;;;;;;14.27;5.90;;;;;;;18.23;55.60;100846.75;5087973;28;20123;-60
2023/05/23 07:51:40;;;;;;;8.88;5.40;;;;;;;18.23;56.22;100845.91;5092415;28;20043;-59
2023/05/23 07:54:07;;;;;;;10.38;5.13;;;;;;;18.15;56.59;100839.28;5090140;28;20052;-59
2023/05/23 07:56:34;;;;;;;18.42;6.32;;;;;;;18.60;55.89;100837.69;5090879;28;20067;-59
2023/05/23 07:59:01;;;;;;;12.43;5.70;;;;;;;18.79;55.63;100837.09;5089956;28;20448;-58
2023/05/23 08:01:28;;;;;;;13.95;5.50;;;;;;;18.91;55.54;100846.03;5090743;28;20044;-59
2023/05/23 08:03:55;;;;;;;14.25;5.72;;;;;;;18.96;56.07;100844.69;5090084;28;20050;-58
2023/05/23 08:06:21;;;;;;;8.30;5.80;;;;;;;18.78;56.93;100856.81;5089522;28;20121;-59
2023/05/23 08:08:48;;;;;;;9.75;6.00;;;;;;;18.91;56.74;100854.06;5088952;28;20075;-58
2023/05/23 08:11:14;;;;;;;8.55;5.03;;;;;;;18.91;57.47;100851.38;5087647;28;20044;-59
2023/05/23 08:13:41;;;;;;;8.70;6.18;;;;;;;18.40;59.21;100857.97;5091395;28;20050;-61
2023/05/23 08:16:07;;;;;;;9.18;6.15;;;;;;;18.58;58.94;100866.41;5091224;28;20131;-59
2023/05/23 08:18:35;;;;;;;10.30;5.60;;;;;;;19.15;57.54;100865.50;5085283;28;20051;-59
2023/05/23 08:21:02;;;;;;;12.15;6.28;;;;;;;19.50;57.03;100869.84;5090945;28;20105;-59
2023/05/23 08:23:29;;;;;;;8.77;5.55;;;;;;;20.01;55.68;100870.19;5088959;28;20105;-59
2023/05/23 08:25:56;;;;;;;14.13;6.93;;;;;;;19.52;57.04;100867.88;5089987;28;20044;-58
2023/05/23 08:28:22;;;;;;;11.40;6.80;;;;;;;19.22;58.01;100877.44;5084388;28;20063;-59
2023/05/23 08:30:50;;;;;;;12.23;7.00;;;;;;;19.32;58.25;100876.69;5086720;28;20162;-59
2023/05/23 08:33:17;;;;;;;15.18;8.82;;;;;;;19.31;58.89;100875.84;5088850;28;20079;-60
2023/05/23 08:35:43;;;;;;;13.77;7.55;;;;;;;18.88;60.25;100880.09;5091968;28;20047;-60
2023/05/23 08:38:10;;;;;;;10.30;7.55;;;;;;;19.04;59.88;100878.88;5084668;28;20064;-60
2023/05/23 08:40:38;;;;;;;13.45;7.60;;;;;;;18.89;60.43;100887.16;5090788;28;20138;-60
2023/05/23 08:43:05;;;;;;;15.30;7.60;;;;;;;18.75;61.14;100884.69;5086371;28;20109;-60
2023/05/23 08:45:33;;;;;;;11.10;7.07;;;;;;;18.73;61.09;100885.78;5089284;28;20059;-60
2023/05/23 08:48:03;;;;;;;16.08;7.78;;;;;;;18.60;61.95;100885.88;5085601;28;20055;-63
2023/05/23 08:50:29;;;;;;;13.13;7.60;;;;;;;18.63;61.73;100891.00;5086789;28;20052;-57
2023/05/23 08:52:58;;;;;;;17.25;7.57;;;;;;;18.68;61.45;100891.47;5087749;28;20044;-58
2023/05/23 08:55:26;;;;;;;11.57;7.05;;;;;;;18.82;61.54;100893.94;5085474;28;20074;-59
2023/05/23 08:57:54;;;;;;;10.45;7.05;;;;;;;18.98;60.93;100900.78;5087754;28;20139;-60
2023/05/23 09:00:22;;;;;;;14.68;8.77;;;;;;;19.09;60.70;100898.13;5091201;28;20487;-60
2023/05/23 09:02:48;;;;;;;13.27;8.85;;;;;;;18.92;61.80;100906.66;5087459;28;20044;-60
2023/05/23 09:05:15;;;;;;;11.27;8.43;;;;;;;18.80;62.29;100906.59;5094096;28;20456;-60
2023/05/23 09:07:48;;;;;;;14.70;9.05;;;;;;;18.80;62.83;100908.41;5089514;28;20108;-59
2023/05/23 09:10:19;;;;;;;11.82;8.27;;;;;;;18.81;62.59;100907.44;5090818;28;20147;-59
2023/05/23 09:12:46;;;;;;;11.35;7.05;;;;;;;18.97;62.23;100910.66;5088646;28;20133;-60
2023/05/23 09:15:13;;;;;;;11.63;8.82;;;;;;;18.43;64.29;100906.75;5087517;28;20101;-58
2023/05/23 09:17:40;;;;;;;14.75;8.88;;;;;;;18.81;63.21;100904.78;5088071;28;20491;-59
2023/05/23 09:20:15;;;;;;;21.98;9.63;;;;;;;19.07;62.76;100908.13;5090625;28;20128;-60
2023/05/23 09:22:49;;;;;;;17.92;9.52;;;;;;;18.45;64.84;100915.50;5088866;28;20063;-59
2023/05/23 09:25:16;;;;;;;23.02;10.60;;;;;;;18.24;65.58;100922.50;5083067;28;20075;-58
2023/05/23 09:27:42;;;;;;;13.48;9.82;;;;;;;18.37;65.62;100907.22;5090987;28;20059;-59
2023/05/23 09:30:13;;;;;;;18.70;9.82;;;;;;;18.38;65.93;100914.28;5078712;28;20113;-60
2023/05/23 09:32:41;;;;;;;13.32;9.32;;;;;;;18.60;64.91;100913.50;5088413;28;20200;-60
2023/05/23 09:35:12;;;;;;;16.15;11.40;;;;;;;18.27;66.05;100922.28;5084925;28;20105;-60
2023/05/23 09:37:45;;;;;;;17.52;12.77;;;;;;;17.92;67.53;100917.75;5088869;28;20140;-60
2023/05/23 09:40:13;;;;;;;17.90;11.80;;;;;;;17.70;68.69;100927.28;5086501;28;20075;-60
2023/05/23 09:42:47;;;;;;;19.10;11.75;;;;;;;17.69;69.58;100933.63;5086678;28;20135;-60
2023/05/23 09:45:15;;;;;;;18.50;13.57;;;;;;;17.36;71.33;100935.09;5089509;28;20154;-60
2023/05/23 09:47:53;;;;;;;20.77;12.52;;;;;;;17.24;72.14;100930.59;5090706;28;20040;-59
2023/05/23 09:50:20;;;;;;;21.25;13.30;;;;;;;17.06;72.30;100930.94;5089085;28;20361;-61
2023/05/23 09:52:47;;;;;;;23.90;14.70;;;;;;;16.76;73.86;100938.38;5092167;28;20150;-62
2023/05/23 09:55:14;;;;;;;22.73;15.40;;;;;;;16.90;73.52;100938.31;5088055;28;20044;-59
2023/05/23 09:57:42;;;;;;;28.08;17.15;;;;;;;16.59;74.45;100948.41;5089436;28;20055;-62
2023/05/23 10:00:11;;;;;;;27.60;18.02;;;;;;;16.41;74.52;100939.84;5090945;28;20117;-60
2023/05/23 10:02:49;;;;;;;28.40;18.50;;;;;;;16.36;74.90;100949.09;5089475;28;20054;-61
2023/05/23 10:05:29;;;;;;;32.08;18.83;;;;;;;16.34;74.99;100944.69;5083051;28;20123;-60
2023/05/23 10:08:00;;;;;;;27.73;18.73;;;;;;;16.72;73.70;100942.22;5085105;28;20052;-57
2023/05/23 10:10:31;;;;;;;25.40;17.55;;;;;;;16.88;72.42;100943.75;5088995;28;20051;-62
2023/05/23 10:13:05;;;;;;;29.90;19.25;;;;;;;16.41;74.68;100949.63;5085138;28;20055;-61
2023/05/23 10:15:38;;;;;;;29.27;18.38;;;;;;;16.69;74.03;100948.63;5085247;28;20136;-61
2023/05/23 10:18:11;;;;;;;30.30;20.75;;;;;;;16.41;74.00;100949.63;5086103;28;20138;-62
2023/05/23 10:20:40;;;;;;;29.42;19.92;;;;;;;16.20;74.72;100951.91;5092287;28;20043;-59
2023/05/23 10:23:07;;;;;;;29.92;19.65;;;;;;;16.34;74.05;100959.84;5085221;28;20052;-57
2023/05/23 10:25:35;;;;;;;30.05;20.42;;;;;;;16.05;74.71;100959.09;5089307;28;20140;-58
2023/05/23 10:28:03;;;;;;;30.95;19.20;;;;;;;16.45;73.20;100957.31;5088636;28;20066;-58
2023/05/23 10:30:30;;;;;;;25.73;17.42;;;;;;;16.82;71.98;100956.63;5086246;28;20075;-60
2023/05/23 10:32:58;;;;;;;29.17;18.80;;;;;;;16.49;72.38;100955.31;5085998;28;20055;-60
2023/05/23 10:36:01;;;;;;;32.08;20.30;;;;;;;16.32;73.01;100954.63;5088508;28;20404;-60
2023/05/23 10:38:42;;;;;;;36.88;19.60;;;;;;;16.47;72.59;100954.56;5088849;28;20059;-60
2023/05/23 10:41:12;;;;;;;28.38;17.58;;;;;;;16.55;72.42;100949.56;5095523;28;20505;-59
2023/05/23 10:44:08;;;;;;;27.05;18.45;;;;;;;16.43;72.60;100953.03;5089715;28;20135;-59
2023/05/23 10:46:53;;;;;;;30.38;18.92;;;;;;;16.43;72.41;100955.72;5072584;28;20415;-59
2023/05/23 10:49:21;;;;;;;28.27;18.40;;;;;;;16.20;73.90;100958.13;5092071;28;20138;-60
2023/05/23 10:51:52;;;;;;;29.02;18.02;;;;;;;16.31;73.78;100960.94;5088651;28;20052;-60
2023/05/23 10:54:19;;;;;;;25.52;17.13;;;;;;;16.08;74.53;100959.75;5088405;28;20052;-59
2023/05/23 10:57:01;;;;;;;29.45;18.85;;;;;;;16.21;74.52;100959.81;5090197;28;20051;-59
2023/05/23 10:59:28;;;;;;;25.15;17.20;;;;;;;16.54;72.98;100966.50;5090521;28;20090;-59
2023/05/23 11:01:55;;;;;;;27.00;17.25;;;;;;;16.36;73.55;100962.44;5091553;28;20044;-58
2023/05/23 11:04:26;;;;;;;29.48;18.70;;;;;;;16.57;72.71;100971.66;5092496;28;20146;-59
2023/05/23 11:06:54;;;;;;;;;;;;;;;16.85;71.79;100959.13;5091844;28;20048;-59
2023/05/23 11:09:21;;;;;;;28.85;16.98;;;;;;;16.81;71.34;100968.28;5091745;28;19920;-57
2023/05/23 11:11:53;;;;;;;23.98;16.58;;;;;;;17.04;70.04;100959.56;5091428;28;20047;-59
2023/05/23 11:14:39;;;;;;;23.55;16.23;;;;;;;17.18;68.90;100960.41;5093354;28;20047;-59
2023/05/23 11:17:12;;;;;;;25.23;16.10;;;;;;;17.46;68.71;100964.69;5090725;28;20047;-59
2023/05/23 11:19:39;;;;;;;25.95;17.20;;;;;;;17.25;69.04;100962.56;5093131;28;20143;-59
2023/05/23 11:22:08;;;;;;;26.33;16.50;;;;;;;16.96;69.93;100969.91;5087817;28;20460;-59
2023/05/23 11:24:51;;;;;;;24.13;15.15;;;;;;;17.35;68.69;100965.44;5094716;28;20117;-59